Flight Track Log - Related Links

Times and Time Zones

All times are in EDT time to prevent confusion due to time zone crossing. See the WBR2634 flight status page for this flight to view local times or setup timezone preferences in your user account.

Time Position Orientation Groundspeed Altitude Reporting Facility
EDT Latitude Longitude Course Direction KTS MPH feet Rate Location/Type
Wed 05:44:09 PM 40.7703 -91.0742 78° East 152 175 2,500  Level Chicago Center
Wed 05:45:00 PM 40.8893 -90.8545 73° East  Level Estimated
Wed 05:45:11 PM 40.7803 -91.0292 74° East 131 151 3,500  Level Chicago Center
Wed 05:46:00 PM 40.8988 -90.7947 78° East  Level FlightAware Approximate
Wed 05:46:13 PM 40.7967 -90.9719 69° East 134 154 4,700  Level Chicago Center
Wed 05:47:00 PM 40.9082 -90.7349 78° East  Level FlightAware Approximate
Wed 05:47:15 PM 40.8097 -90.9208 71° East 142 163 5,700  Level Chicago Center
Wed 05:48:00 PM 40.9176 -90.6751 78° East  Level FlightAware Approximate
Wed 05:48:17 PM 40.8239 -90.8694 70° East 147 169 6,800  Level Chicago Center
Wed 05:49:00 PM 40.9269 -90.6153 78° East  Level FlightAware Approximate
Wed 05:49:19 PM 40.8375 -90.8183 71° East 147 169 7,700  Level Chicago Center
Wed 05:50:21 PM 40.8522 -90.7639 70° East 155 178 8,500 672 Climbing Chicago Center
Wed 05:51:24 PM 40.8667 -90.7083 71° East 160 184 9,100 240 Climbing Chicago Center
Wed 05:52:26 PM 40.8883 -90.6289 70° East 189 217 9,000 -48 Descending Chicago Center
Wed 05:53:28 PM 40.9008 -90.5628 76° East 186 214 9,000  Level Chicago Center
Wed 05:54:30 PM 40.9183 -90.4981 70° East 188 216 9,000 48 Level Chicago Center
Wed 05:55:32 PM 40.9347 -90.4344 71° East 184 212 9,100 48 Climbing Chicago Center
Wed 05:56:34 PM 40.9517 -90.3703 71° East 185 213 9,100 -48 Level Chicago Center
Wed 05:57:36 PM 40.9725 -90.3083 66° East 185 213 9,000 -48 Descending Chicago Center
Wed 05:58:38 PM 40.9856 -90.2431 75° East 184 212 9,000  Level Chicago Center
Wed 05:59:40 PM 41.0067 -90.1667 70° East 183 211 9,000  Level Chicago Center
Wed 06:00:42 PM 41.0231 -90.1014 72° East 186 214 9,000 -48 Level Chicago Center
Wed 06:01:45 PM 41.0400 -90.0375 71° East 184 212 8,900  Descending Chicago Center
Wed 06:02:47 PM 41.0569 -89.9725 71° East 185 213 9,000 48 Climbing Chicago Center
Wed 06:03:49 PM 41.0747 -89.9086 70° East 184 212 9,000 -48 Level Chicago Center
Wed 06:04:51 PM 41.0944 -89.8447 68° East 185 213 8,900  Descending Chicago Center
Wed 06:05:53 PM 41.1108 -89.7664 74° East 185 213 9,000  Climbing Chicago Center
Wed 06:06:55 PM 41.1319 -89.7033 66° East 187 215 8,900  Descending Chicago Center
Wed 06:07:57 PM 41.1539 -89.6428 64° Northeast 184 212 9,000 97 Climbing Chicago Center
Wed 06:08:59 PM 41.1692 -89.5764 73° East 186 214 9,100  Climbing Chicago Center
Wed 06:10:01 PM 41.1928 -89.5139 63° Northeast 186 214 9,000 -48 Descending Chicago Center
Wed 06:11:03 PM 41.2164 -89.4550 62° Northeast 186 214 9,000 -48 Level Chicago Center
Wed 06:12:05 PM 41.2453 -89.3978 56° Northeast 186 214 8,900 -384 Descending Chicago Center
Wed 06:13:08 PM 41.2800 -89.3256 57° Northeast 189 217 8,200 -384 Descending Chicago Center
Wed 06:14:10 PM 41.3083 -89.2689 56° Northeast 188 216 8,100 -97 Descending Chicago Center
Wed 06:15:12 PM 41.3367 -89.2142 55° Northeast 183 211 8,000 -48 Descending Chicago Center
Wed 06:16:14 PM 41.3614 -89.1558 61° Northeast 183 211 8,000  Level Chicago Center
Wed 06:17:16 PM 41.3872 -89.0975 59° Northeast 184 212 8,000  Level Chicago Center
Wed 06:18:18 PM 41.4156 -89.0264 62° Northeast 182 209 8,000  Level Chicago Center
Wed 06:19:20 PM 41.4436 -88.9708 56° Northeast 182 209 8,000 48 Level Chicago Center
Wed 06:20:22 PM 41.4700 -88.9139 58° Northeast 181 208 8,100  Climbing Chicago Center
Wed 06:21:24 PM 41.4939 -88.8525 63° Northeast 185 213 8,000 -48 Descending Chicago Center
Wed 06:22:26 PM 41.5222 -88.7978 55° Northeast 180 207 8,000  Level Chicago Center
Wed 06:23:29 PM 41.5558 -88.7300 56° Northeast 183 211 8,000  Level Chicago Center
Wed 06:24:31 PM 41.5814 -88.6708 60° Northeast 183 211 8,000  Level Chicago Center
Wed 06:25:33 PM 41.6081 -88.6142 58° Northeast 182 209 8,000 48 Level Chicago Center
Wed 06:26:35 PM 41.6394 -88.5603 52° Northeast 183 211 8,100 48 Climbing Chicago Center
Wed 06:27:37 PM 41.6678 -88.5028 57° Northeast 184 212 8,100 -48 Level Chicago Center
Wed 06:28:39 PM 41.6958 -88.4461 56° Northeast 184 212 8,000 -97 Descending Chicago Center
Wed 06:29:41 PM 41.7303 -88.3781 56° Northeast 183 211 7,900 -290 Descending Chicago Center
Wed 06:30:43 PM 41.7617 -88.3236 52° Northeast 184 212 7,400 -484 Descending Chicago Center
Wed 06:31:45 PM 41.8075 -88.3031 18° North 176 203 6,900 -532 Descending Chicago Center
Wed 06:32:47 PM 41.8522 -88.2808 20° North 172 198 6,300 -629 Descending Chicago Center
Wed 06:33:49 PM 41.8978 -88.2419 32° Northeast 187 215 5,600 -576 Descending Chicago Center
Wed 06:34:52 PM 41.9353 -88.1844 49° Northeast 207 238 5,100 -672 Descending Chicago Center
Wed 06:35:54 PM 41.9622 -88.0997 67° East 206 237 4,200 -1,113 Descending Chicago Center
Wed 06:36:56 PM 41.9689 -88.0269 83° East 202 232 2,800 -1,403 Descending Chicago Center
Wed 06:37:58 PM 41.9683 -87.9603 91° East 189 217 1,300 -968 Descending Chicago Center
Wed 06:39:00 PM 41.9675 -87.9053 91° East 183 211 800 -484 Descending Chicago Center
Wed 06:40:00 PM 41.9667 -87.9000 56° Northeast  Level FlightAware Approximate

Login

Don't have an account? Register now (free) for customized features, flight alerts, and more!